createdAt,value
2019-04-01T00:00:06.289Z,26.50
2019-04-01T00:02:37.043Z,26.50
2019-04-01T00:05:08.203Z,26.60
2019-04-01T00:07:38.861Z,26.60
2019-04-01T00:10:09.922Z,26.60
2019-04-01T00:12:40.511Z,26.60
2019-04-01T00:15:11.593Z,26.70
2019-04-01T00:17:42.515Z,26.70
2019-04-01T00:20:13.321Z,26.80
2019-04-01T00:22:44.572Z,26.80
2019-04-01T00:25:16.758Z,26.80
2019-04-01T00:27:47.529Z,26.90
2019-04-01T00:30:18.563Z,27.00
2019-04-01T00:32:49.296Z,27.00
2019-04-01T00:35:19.938Z,27.10
2019-04-01T00:37:50.736Z,27.10
2019-04-01T00:40:21.670Z,27.20
2019-04-01T00:42:53.737Z,27.20
2019-04-01T00:45:26.891Z,27.30
2019-04-01T00:47:57.949Z,27.40
2019-04-01T00:50:29.072Z,27.50
2019-04-01T00:53:00.133Z,27.50
2019-04-01T00:55:31.124Z,27.60
2019-04-01T00:58:01.985Z,27.70
2019-04-01T01:00:32.804Z,27.70
2019-04-01T01:03:23.001Z,27.70
2019-04-01T01:05:54.475Z,27.80
2019-04-01T01:08:25.352Z,27.80
2019-04-01T01:10:56.091Z,27.90
2019-04-01T01:13:27.055Z,27.90
2019-04-01T01:15:58.277Z,28.00
2019-04-01T01:18:29.345Z,28.00
2019-04-01T01:21:00.053Z,28.10
2019-04-01T01:23:30.957Z,28.10
2019-04-01T01:26:02.086Z,28.10
2019-04-01T01:28:33.075Z,28.20
2019-04-01T01:31:04.059Z,28.20
2019-04-01T01:33:34.928Z,28.20
2019-04-01T01:36:05.749Z,28.20
2019-04-01T01:38:36.468Z,28.20
2019-04-01T01:41:07.459Z,28.30
2019-04-01T01:43:38.284Z,28.30
2019-04-01T01:46:09.816Z,28.30
2019-04-01T01:48:40.832Z,28.40
2019-04-01T01:51:11.964Z,28.40
2019-04-01T01:53:42.748Z,28.50
2019-04-01T01:56:13.671Z,28.60
2019-04-01T01:58:44.560Z,28.60
2019-04-01T02:01:15.479Z,28.70
2019-04-01T02:03:46.494Z,28.70
2019-04-01T02:06:20.153Z,28.80
2019-04-01T02:08:51.157Z,28.90
2019-04-01T02:11:22.104Z,28.90
2019-04-01T02:13:52.916Z,29.10
2019-04-01T02:16:23.810Z,29.10
2019-04-01T02:18:54.779Z,29.20
2019-04-01T02:21:25.818Z,29.20
2019-04-01T02:23:57.641Z,29.20
2019-04-01T02:26:28.525Z,29.30
2019-04-01T02:29:00.611Z,29.30
2019-04-01T02:31:31.361Z,29.30
2019-04-01T02:34:02.085Z,29.40
2019-04-01T02:36:33.087Z,29.40
2019-04-01T02:39:05.293Z,29.50
2019-04-01T02:41:36.056Z,29.50
2019-04-01T02:44:07.108Z,29.50
2019-04-01T02:46:38.556Z,29.60
2019-04-01T02:49:09.567Z,29.70
2019-04-01T02:51:40.421Z,29.70
2019-04-01T02:54:13.381Z,29.80
2019-04-01T02:56:44.095Z,29.90
2019-04-01T02:59:15.174Z,29.90
2019-04-01T03:01:46.099Z,30.00
2019-04-01T03:04:17.029Z,30.10
2019-04-01T03:06:47.801Z,30.20
2019-04-01T03:09:18.796Z,30.20
2019-04-01T03:11:49.547Z,30.30
2019-04-01T03:14:20.485Z,30.30
2019-04-01T03:16:51.257Z,30.40
2019-04-01T03:19:22.619Z,30.40
2019-04-01T03:21:53.361Z,30.50
2019-04-01T03:24:24.183Z,30.50
2019-04-01T03:26:55.158Z,30.70
2019-04-01T03:29:26.140Z,30.70
2019-04-01T03:31:57.235Z,30.70
2019-04-01T03:34:28.185Z,30.80
2019-04-01T03:36:59.053Z,30.80
2019-04-01T03:39:30.125Z,30.90
2019-04-01T03:42:01.069Z,31.00
2019-04-01T03:44:31.912Z,31.00
2019-04-01T03:47:02.936Z,31.10
2019-04-01T03:49:34.088Z,31.10
2019-04-01T03:52:07.904Z,31.20
2019-04-01T03:54:37.208Z,31.20
2019-04-01T03:57:08.817Z,31.30
2019-04-01T03:59:40.788Z,31.30
2019-04-01T04:02:12.449Z,31.40
2019-04-01T04:04:45.972Z,31.40
2019-04-01T04:07:17.090Z,31.40
2019-04-01T04:09:47.888Z,31.50
2019-04-01T04:12:19.020Z,31.50
2019-04-01T04:14:51.474Z,31.60
2019-04-01T04:17:22.271Z,31.60
2019-04-01T04:19:54.581Z,31.70
2019-04-01T04:22:26.171Z,31.70
2019-04-01T04:24:57.339Z,31.80
2019-04-01T04:27:28.167Z,31.80
2019-04-01T04:29:59.149Z,31.80
2019-04-01T04:32:30.477Z,31.90
2019-04-01T04:35:01.259Z,32.00
2019-04-01T04:37:32.290Z,32.00
2019-04-01T04:40:03.168Z,32.00
2019-04-01T04:42:34.581Z,32.10
2019-04-01T04:45:07.215Z,32.10
2019-04-01T04:47:37.985Z,32.20
2019-04-01T04:50:09.270Z,32.20
2019-04-01T04:52:39.969Z,32.20
2019-04-01T04:55:11.068Z,32.30
2019-04-01T04:57:41.875Z,32.30
2019-04-01T05:00:13.099Z,32.40
2019-04-01T05:02:44.024Z,32.40
2019-04-01T05:05:15.061Z,32.40
2019-04-01T05:07:46.221Z,32.50
2019-04-01T05:10:18.080Z,32.50
2019-04-01T05:12:49.435Z,32.50
2019-04-01T05:15:20.392Z,32.60
2019-04-01T05:17:51.537Z,32.60
2019-04-01T05:20:23.493Z,32.60
2019-04-01T05:22:54.711Z,32.60
2019-04-01T05:25:26.079Z,32.60
2019-04-01T05:27:58.184Z,32.60
2019-04-01T05:30:31.578Z,32.70
2019-04-01T05:33:05.208Z,32.70
2019-04-01T05:35:43.312Z,32.80
2019-04-01T05:38:15.014Z,32.80
2019-04-01T05:40:46.393Z,32.90
2019-04-01T05:43:18.633Z,32.90
2019-04-01T05:45:50.684Z,32.80
2019-04-01T05:48:21.758Z,32.80
2019-04-01T05:50:52.745Z,32.80
2019-04-01T05:53:23.809Z,32.70
2019-04-01T05:55:54.811Z,32.80
2019-04-01T05:58:25.748Z,32.70
2019-04-01T06:00:57.792Z,32.70
2019-04-01T06:03:28.713Z,32.70
2019-04-01T06:05:59.943Z,32.80
2019-04-01T06:08:30.776Z,32.80
2019-04-01T06:11:01.879Z,32.90
2019-04-01T06:13:32.803Z,33.00
2019-04-01T06:16:03.955Z,33.10
2019-04-01T06:18:35.013Z,33.20
2019-04-01T06:21:06.366Z,33.20
2019-04-01T06:23:43.752Z,33.30
2019-04-01T06:26:16.935Z,33.30
2019-04-01T06:28:47.954Z,33.40
2019-04-01T06:31:22.730Z,33.40
2019-04-01T06:33:54.457Z,33.50
2019-04-01T06:36:25.572Z,33.50
2019-04-01T06:38:58.505Z,33.60
2019-04-01T06:41:38.244Z,33.60
2019-04-01T06:44:18.543Z,33.60
2019-04-01T06:46:52.293Z,33.50
2019-04-01T06:49:37.771Z,33.40
2019-04-01T06:52:09.882Z,33.40
2019-04-01T06:54:40.924Z,33.30
2019-04-01T06:57:11.877Z,33.30
2019-04-01T06:59:42.856Z,33.30
2019-04-01T07:02:13.831Z,33.20
2019-04-01T07:04:44.734Z,33.30
2019-04-01T07:07:19.274Z,33.30
2019-04-01T07:09:50.751Z,33.30
2019-04-01T07:12:25.880Z,33.40
2019-04-01T07:14:56.726Z,33.40
2019-04-01T07:17:27.778Z,33.50
2019-04-01T07:19:59.358Z,33.50
2019-04-01T07:22:30.202Z,33.60
2019-04-01T07:25:08.687Z,33.60
2019-04-01T07:27:39.687Z,33.60
2019-04-01T07:30:11.071Z,33.70
2019-04-01T07:32:42.029Z,33.70
2019-04-01T07:35:12.962Z,33.70
2019-04-01T07:37:43.788Z,33.70
2019-04-01T07:40:14.957Z,33.80
2019-04-01T07:42:46.875Z,33.80
2019-04-01T07:45:17.933Z,33.70
2019-04-01T07:47:51.488Z,33.70
2019-04-01T07:50:21.606Z,33.70
2019-04-01T07:52:55.392Z,33.60
2019-04-01T07:55:25.885Z,33.60
2019-04-01T07:57:59.925Z,33.60
2019-04-01T08:00:31.095Z,33.60
2019-04-01T08:03:02.081Z,33.70
2019-04-01T08:05:33.500Z,33.80
2019-04-01T08:08:04.634Z,33.80
2019-04-01T08:10:35.609Z,33.90
2019-04-01T08:13:06.747Z,33.90
2019-04-01T08:15:38.054Z,34.00
2019-04-01T08:18:09.121Z,34.00
2019-04-01T08:20:40.208Z,34.00
2019-04-01T08:23:11.063Z,34.00
2019-04-01T08:25:42.203Z,34.00
2019-04-01T08:28:13.281Z,34.10
2019-04-01T08:30:44.248Z,34.10
2019-04-01T08:33:15.912Z,34.10
2019-04-01T08:35:47.132Z,34.20
2019-04-01T08:38:18.230Z,34.20
2019-04-01T08:40:53.858Z,34.20
2019-04-01T08:43:25.102Z,34.10
2019-04-01T08:45:57.031Z,34.10
2019-04-01T08:48:28.061Z,34.10
2019-04-01T08:51:00.591Z,34.10
2019-04-01T08:53:31.971Z,34.10
2019-04-01T08:56:02.911Z,34.10
2019-04-01T08:58:50.462Z,34.10
2019-04-01T09:01:35.389Z,34.10
2019-04-01T09:04:07.094Z,34.10
2019-04-01T09:06:38.867Z,34.00
2019-04-01T09:09:15.172Z,33.90
2019-04-01T09:11:47.164Z,33.80
2019-04-01T09:14:23.122Z,33.60
2019-04-01T09:17:02.054Z,33.50
2019-04-01T09:19:36.437Z,33.30
2019-04-01T09:22:08.084Z,33.20
2019-04-01T09:24:47.700Z,33.10
2019-04-01T09:27:20.470Z,33.00
2019-04-01T09:29:52.156Z,33.00
2019-04-01T09:32:23.620Z,33.00
2019-04-01T09:34:55.816Z,33.00
2019-04-01T09:37:35.938Z,33.00
2019-04-01T09:40:16.622Z,33.00
2019-04-01T09:42:47.744Z,33.00
2019-04-01T09:45:28.987Z,33.10
2019-04-01T09:48:00.552Z,33.10
2019-04-01T09:50:31.871Z,33.10
2019-04-01T09:53:02.787Z,33.10
2019-04-01T09:55:33.797Z,33.00
2019-04-01T09:58:04.865Z,33.00
2019-04-01T10:00:36.703Z,33.00
2019-04-01T10:03:08.199Z,33.00
2019-04-01T10:05:39.237Z,33.00
2019-04-01T10:08:10.977Z,33.00
2019-04-01T10:10:42.240Z,33.00
2019-04-01T10:13:13.143Z,33.00
2019-04-01T10:15:43.964Z,32.90
2019-04-01T10:18:14.735Z,33.00
2019-04-01T10:20:45.698Z,32.90
2019-04-01T10:23:16.642Z,32.90
2019-04-01T10:25:50.966Z,32.90
2019-04-01T10:28:20.339Z,32.90
2019-04-01T10:30:51.434Z,32.90
2019-04-01T10:33:22.416Z,32.80
2019-04-01T10:35:53.329Z,32.80
2019-04-01T10:38:24.472Z,32.80
2019-04-01T10:40:55.396Z,32.80
2019-04-01T10:43:26.232Z,32.80
2019-04-01T10:45:57.093Z,32.80
2019-04-01T10:48:29.127Z,32.70
2019-04-01T10:51:00.065Z,32.70
2019-04-01T10:53:30.965Z,32.70
2019-04-01T10:56:01.729Z,32.70
2019-04-01T10:58:34.917Z,32.60
2019-04-01T11:01:05.839Z,32.60
2019-04-01T11:03:36.638Z,32.50
2019-04-01T11:06:07.530Z,32.50
2019-04-01T11:08:38.480Z,32.40
2019-04-01T11:11:09.405Z,32.40
2019-04-01T11:13:40.365Z,32.30
2019-04-01T11:16:11.154Z,32.20
2019-04-01T11:18:42.123Z,32.10
2019-04-01T11:21:13.036Z,32.10
2019-04-01T11:23:43.935Z,32.00
2019-04-01T11:26:15.218Z,31.90
2019-04-01T11:28:45.890Z,31.90
2019-04-01T11:31:16.599Z,31.80
2019-04-01T11:33:47.593Z,31.80
2019-04-01T11:36:18.515Z,31.70
2019-04-01T11:38:49.372Z,31.70
2019-04-01T11:41:20.422Z,31.60
2019-04-01T11:43:52.498Z,31.60
2019-04-01T11:46:23.698Z,31.50
2019-04-01T11:48:54.647Z,31.50
2019-04-01T11:51:32.616Z,31.40
2019-04-01T11:53:57.891Z,31.40
2019-04-01T11:56:28.842Z,31.40
2019-04-01T11:58:59.754Z,31.30
2019-04-01T12:01:30.352Z,31.30
2019-04-01T12:04:01.456Z,31.30
2019-04-01T12:06:32.286Z,31.20
2019-04-01T12:09:02.991Z,31.20
2019-04-01T12:11:33.820Z,31.10
2019-04-01T12:14:05.282Z,31.10
2019-04-01T12:16:36.581Z,31.00
2019-04-01T12:19:07.470Z,31.00
2019-04-01T12:21:41.334Z,31.00
2019-04-01T12:24:10.573Z,31.00
2019-04-01T12:26:41.455Z,31.00
2019-04-01T12:29:13.608Z,31.00
2019-04-01T12:31:44.681Z,31.00
2019-04-01T12:34:15.465Z,31.00
2019-04-01T12:36:48.315Z,30.90
2019-04-01T12:39:21.492Z,30.90
2019-04-01T12:41:52.400Z,30.90
2019-04-01T12:44:23.278Z,30.90
2019-04-01T12:46:54.244Z,30.90
2019-04-01T12:49:24.963Z,30.80
2019-04-01T12:51:58.180Z,30.80
2019-04-01T12:54:28.263Z,30.80
2019-04-01T12:56:59.111Z,30.70
2019-04-01T12:59:29.909Z,30.70
2019-04-01T13:02:00.843Z,30.70
2019-04-01T13:04:31.767Z,30.70
2019-04-01T13:07:04.917Z,30.70
2019-04-01T13:09:34.688Z,30.60
2019-04-01T13:12:08.195Z,30.60
2019-04-01T13:14:40.228Z,30.70
2019-04-01T13:17:11.063Z,30.60
2019-04-01T13:19:42.141Z,30.60
2019-04-01T13:22:15.784Z,30.60
2019-04-01T13:24:46.559Z,30.60
2019-04-01T13:27:17.602Z,30.60
2019-04-01T13:29:48.393Z,30.50
2019-04-01T13:32:20.264Z,30.50
2019-04-01T13:34:51.435Z,30.50
2019-04-01T13:37:22.374Z,30.50
2019-04-01T13:39:53.490Z,30.40
2019-04-01T13:42:25.079Z,30.40
2019-04-01T13:44:55.893Z,30.40
2019-04-01T13:47:26.752Z,30.40
2019-04-01T13:49:57.676Z,30.40
2019-04-01T13:52:28.294Z,30.40
2019-04-01T13:54:59.333Z,30.30
2019-04-01T13:57:29.988Z,30.30
2019-04-01T14:00:00.799Z,30.30
2019-04-01T14:02:31.729Z,30.30
2019-04-01T14:05:05.744Z,30.30
2019-04-01T14:07:34.771Z,30.20
2019-04-01T14:10:07.146Z,30.20
2019-04-01T14:12:37.973Z,30.20
2019-04-01T14:15:10.077Z,30.20
2019-04-01T14:17:41.168Z,30.20
2019-04-01T14:20:12.442Z,30.10
2019-04-01T14:22:44.513Z,30.10
2019-04-01T14:25:15.397Z,30.00
2019-04-01T14:27:46.212Z,30.00
2019-04-01T14:30:17.436Z,29.90
2019-04-01T14:32:48.184Z,29.90
2019-04-01T14:35:19.121Z,29.80
2019-04-01T14:37:49.948Z,29.80
2019-04-01T14:40:21.439Z,29.80
2019-04-01T14:42:53.463Z,29.70
2019-04-01T14:45:25.189Z,29.70
2019-04-01T14:47:57.449Z,29.70
2019-04-01T14:50:28.043Z,29.70
2019-04-01T14:52:59.687Z,29.60
2019-04-01T14:55:31.110Z,29.60
2019-04-01T14:58:02.227Z,29.60
2019-04-01T15:00:33.161Z,29.60
2019-04-01T15:03:04.037Z,29.60
2019-04-01T15:05:34.943Z,29.60
2019-04-01T15:08:05.899Z,29.60
2019-04-01T15:10:36.837Z,29.60
2019-04-01T15:13:08.774Z,29.60
2019-04-01T15:15:39.654Z,29.60
2019-04-01T15:18:10.495Z,29.60
2019-04-01T15:20:41.512Z,29.50
2019-04-01T15:23:12.592Z,29.50
2019-04-01T15:25:43.437Z,29.50
2019-04-01T15:28:14.164Z,29.40
2019-04-01T15:30:45.075Z,29.40
2019-04-01T15:33:16.012Z,29.30
2019-04-01T15:35:47.189Z,29.30
2019-04-01T15:38:17.957Z,29.30
2019-04-01T15:40:48.610Z,29.30
2019-04-01T15:43:19.517Z,29.30
2019-04-01T15:45:50.430Z,29.30
2019-04-01T15:48:21.208Z,29.30
2019-04-01T15:50:51.913Z,29.30
2019-04-01T15:53:23.590Z,29.30
2019-04-01T15:55:54.357Z,29.40
2019-04-01T15:58:25.327Z,29.30
2019-04-01T16:00:56.122Z,29.30
2019-04-01T16:03:27.027Z,29.20
2019-04-01T16:05:57.739Z,29.20
2019-04-01T16:08:28.650Z,29.20
2019-04-01T16:10:59.414Z,29.20
2019-04-01T16:13:30.295Z,29.20
2019-04-01T16:16:01.149Z,29.10
2019-04-01T16:18:32.273Z,29.10
2019-04-01T16:21:05.396Z,29.10
2019-04-01T16:23:36.392Z,29.10
2019-04-01T16:26:09.539Z,29.10
2019-04-01T16:28:39.589Z,29.10
2019-04-01T16:31:10.488Z,29.00
2019-04-01T16:33:41.431Z,29.00
2019-04-01T16:36:12.327Z,29.00
2019-04-01T16:38:43.191Z,29.00
2019-04-01T16:41:13.911Z,28.90
2019-04-01T16:43:46.218Z,28.90
2019-04-01T16:46:17.026Z,28.90
2019-04-01T16:48:47.726Z,28.90
2019-04-01T16:51:18.674Z,28.90
2019-04-01T16:53:49.293Z,28.90
2019-04-01T16:56:20.255Z,28.90
2019-04-01T16:58:51.548Z,29.00
2019-04-01T17:01:23.289Z,29.00
2019-04-01T17:03:54.461Z,28.90
2019-04-01T17:06:25.262Z,29.00
2019-04-01T17:08:56.218Z,29.00
2019-04-01T17:11:27.161Z,29.00
2019-04-01T17:13:58.068Z,29.00
2019-04-01T17:16:28.831Z,29.00
2019-04-01T17:18:59.600Z,29.00
2019-04-01T17:21:30.659Z,29.00
2019-04-01T17:24:01.470Z,29.00
2019-04-01T17:26:32.179Z,29.00
2019-04-01T17:29:02.976Z,29.00
2019-04-01T17:31:33.999Z,29.00
2019-04-01T17:34:04.839Z,29.00
2019-04-01T17:36:35.627Z,29.00
2019-04-01T17:39:07.817Z,29.00
2019-04-01T17:41:39.342Z,29.00
2019-04-01T17:44:14.014Z,29.00
2019-04-01T17:46:45.161Z,28.90
2019-04-01T17:49:16.058Z,28.90
2019-04-01T17:51:46.877Z,28.90
2019-04-01T17:54:19.038Z,28.90
2019-04-01T17:56:50.112Z,28.90
2019-04-01T17:59:20.944Z,28.80
2019-04-01T18:01:51.783Z,28.80
2019-04-01T18:04:23.200Z,28.80
2019-04-01T18:06:54.158Z,28.80
2019-04-01T18:09:25.036Z,28.70
2019-04-01T18:11:55.646Z,28.70
2019-04-01T18:14:26.611Z,28.70
2019-04-01T18:16:57.423Z,28.70
2019-04-01T18:19:28.207Z,28.70
2019-04-01T18:22:00.126Z,28.60
2019-04-01T18:24:31.236Z,28.60
2019-04-01T18:27:02.729Z,28.60
2019-04-01T18:29:33.491Z,28.60
2019-04-01T18:32:04.305Z,28.60
2019-04-01T18:34:35.281Z,28.50
2019-04-01T18:37:06.034Z,28.50
2019-04-01T18:39:47.443Z,28.50
2019-04-01T18:42:09.345Z,28.50
2019-04-01T18:44:40.169Z,28.50
2019-04-01T18:47:13.652Z,28.40
2019-04-01T18:49:45.939Z,28.40
2019-04-01T18:52:16.932Z,28.40
2019-04-01T18:54:47.746Z,28.40
2019-04-01T18:57:18.945Z,28.40
2019-04-01T18:59:51.796Z,28.40
2019-04-01T19:02:22.717Z,28.40
2019-04-01T19:04:53.620Z,28.30
2019-04-01T19:07:25.137Z,28.30
2019-04-01T19:10:05.966Z,28.30
2019-04-01T19:12:29.164Z,28.30
2019-04-01T19:15:02.314Z,28.20
2019-04-01T19:17:32.221Z,28.20
2019-04-01T19:20:03.081Z,28.20
2019-04-01T19:22:33.890Z,28.20
2019-04-01T19:25:05.171Z,28.20
2019-04-01T19:27:36.051Z,28.20
2019-04-01T19:30:08.423Z,28.10
2019-04-01T19:32:39.301Z,28.10
2019-04-01T19:35:10.328Z,28.10
2019-04-01T19:37:41.191Z,28.10
2019-04-01T19:40:12.757Z,28.10
2019-04-01T19:42:43.596Z,28.10
2019-04-01T19:45:19.889Z,28.00
2019-04-01T19:47:50.705Z,28.10
2019-04-01T19:50:22.802Z,28.00
2019-04-01T19:52:55.299Z,28.00
2019-04-01T19:55:26.392Z,28.00
2019-04-01T19:57:57.302Z,28.00
2019-04-01T20:00:29.595Z,28.00
2019-04-01T20:03:00.171Z,28.00
2019-04-01T20:05:31.098Z,28.00
2019-04-01T20:08:01.978Z,28.00
2019-04-01T20:10:32.942Z,27.90
2019-04-01T20:13:04.748Z,27.90
2019-04-01T20:15:37.998Z,27.90
2019-04-01T20:18:08.983Z,27.90
2019-04-01T20:20:41.547Z,27.80
2019-04-01T20:23:12.161Z,27.80
2019-04-01T20:25:43.134Z,27.80
2019-04-01T20:28:14.010Z,27.80
2019-04-01T20:30:44.943Z,27.80
2019-04-01T20:33:17.956Z,27.80
2019-04-01T20:35:47.687Z,27.80
2019-04-01T20:38:18.511Z,27.80
2019-04-01T20:40:49.368Z,27.70
2019-04-01T20:43:20.161Z,27.70
2019-04-01T20:45:51.130Z,27.80
2019-04-01T20:48:21.849Z,27.70
2019-04-01T20:50:54.918Z,27.70
2019-04-01T20:53:24.952Z,27.70
2019-04-01T20:55:55.719Z,27.70
2019-04-01T20:58:26.543Z,27.70
2019-04-01T21:00:57.352Z,27.70
2019-04-01T21:03:27.966Z,27.70
2019-04-01T21:05:58.972Z,27.70
2019-04-01T21:08:29.766Z,27.70
2019-04-01T21:11:00.626Z,27.70
2019-04-01T21:13:32.035Z,27.70
2019-04-01T21:16:04.060Z,27.70
2019-04-01T21:18:35.298Z,27.60
2019-04-01T21:21:06.186Z,27.60
2019-04-01T21:23:36.982Z,27.60
2019-04-01T21:26:07.884Z,27.60
2019-04-01T21:28:39.634Z,27.60
2019-04-01T21:31:10.443Z,27.60
2019-04-01T21:33:42.130Z,27.60
2019-04-01T21:36:12.937Z,27.60
2019-04-01T21:38:44.085Z,27.60
2019-04-01T21:41:14.966Z,27.60
2019-04-01T21:43:45.888Z,27.60
2019-04-01T21:46:16.780Z,27.60
2019-04-01T21:48:47.599Z,27.60
2019-04-01T21:51:19.525Z,27.60
2019-04-01T21:53:50.357Z,27.60
2019-04-01T21:56:22.173Z,27.60
2019-04-01T21:58:53.392Z,27.60
2019-04-01T22:01:24.499Z,27.60
2019-04-01T22:03:55.519Z,27.60
2019-04-01T22:06:26.309Z,27.60
2019-04-01T23:42:17.877Z,27.50
2019-04-01T23:44:48.834Z,27.50
2019-04-01T23:47:19.723Z,27.50
2019-04-01T23:49:50.504Z,27.50
2019-04-01T23:52:21.588Z,27.50
2019-04-01T23:54:52.507Z,27.50
2019-04-01T23:57:24.232Z,27.50
2019-04-01T23:59:55.419Z,27.50
